createdAt,value
2023-03-18T00:01:39.969Z,7.70
2023-03-18T00:04:10.052Z,7.07
2023-03-18T00:06:40.466Z,7.75
2023-03-18T00:09:08.792Z,6.50
2023-03-18T00:11:37.562Z,5.50
2023-03-18T00:14:11.103Z,6.75
2023-03-18T00:16:39.953Z,8.00
2023-03-18T00:19:08.614Z,6.75
2023-03-18T00:21:36.977Z,5.35
2023-03-18T00:24:09.546Z,6.20
2023-03-18T00:26:37.871Z,6.90
2023-03-18T00:29:07.702Z,5.50
2023-03-18T00:31:36.602Z,8.10
2023-03-18T00:34:07.925Z,7.82
2023-03-18T00:36:37.252Z,7.97
2023-03-18T00:39:09.250Z,6.82
2023-03-18T00:41:38.485Z,8.30
2023-03-18T00:44:07.885Z,6.82
2023-03-18T00:46:37.698Z,8.30
2023-03-18T00:49:09.601Z,7.88
2023-03-18T00:51:41.787Z,7.60
2023-03-18T00:54:14.173Z,10.02
2023-03-18T00:56:43.031Z,7.78
2023-03-18T00:59:11.871Z,8.25
2023-03-18T01:01:41.814Z,8.15
2023-03-18T01:04:10.246Z,8.77
2023-03-18T01:06:39.419Z,9.10
2023-03-18T01:09:11.817Z,9.98
2023-03-18T01:11:41.044Z,8.23
2023-03-18T01:14:09.386Z,14.45
2023-03-18T01:16:38.216Z,8.75
2023-03-18T01:19:07.161Z,8.90
2023-03-18T01:21:35.513Z,7.20
2023-03-18T01:24:06.428Z,11.85
2023-03-18T01:26:37.848Z,8.02
2023-03-18T01:29:07.692Z,8.93
2023-03-18T01:31:37.698Z,8.30
2023-03-18T01:34:12.104Z,10.55
2023-03-18T01:36:47.968Z,10.10
2023-03-18T01:39:17.509Z,10.18
2023-03-18T01:41:48.770Z,9.38
2023-03-18T01:44:25.574Z,8.90
2023-03-18T01:46:56.740Z,7.18
2023-03-18T01:49:29.092Z,12.13
2023-03-18T01:52:06.935Z,10.02
2023-03-18T01:54:39.791Z,10.68
2023-03-18T01:57:13.712Z,14.07
2023-03-18T01:59:43.415Z,9.23
2023-03-18T02:02:14.966Z,11.73
2023-03-18T02:04:46.420Z,11.20
2023-03-18T02:07:17.627Z,12.18
2023-03-18T02:09:47.449Z,13.20
2023-03-18T02:12:23.033Z,9.10
2023-03-18T02:14:54.096Z,12.80
2023-03-18T02:17:25.650Z,10.40
2023-03-18T02:20:08.929Z,12.25
2023-03-18T02:22:41.313Z,11.85
2023-03-18T02:25:20.593Z,11.95
2023-03-18T02:27:54.245Z,14.65
2023-03-18T02:30:27.252Z,14.30
2023-03-18T02:32:58.893Z,15.43
2023-03-18T02:35:29.009Z,13.93
2023-03-18T02:38:00.192Z,20.73
2023-03-18T02:40:34.116Z,12.25
2023-03-18T02:43:21.261Z,13.20
2023-03-18T02:46:08.000Z,13.70
2023-03-18T02:48:38.799Z,12.50
2023-03-18T02:51:08.958Z,13.25
2023-03-18T02:53:38.196Z,12.55
2023-03-18T02:56:08.241Z,16.83
2023-03-18T02:58:38.884Z,12.13
2023-03-18T03:01:09.411Z,14.35
2023-03-18T03:03:38.672Z,17.42
2023-03-18T03:06:08.756Z,13.32
2023-03-18T03:08:38.396Z,16.55
2023-03-18T03:11:10.214Z,12.05
2023-03-18T03:13:41.845Z,14.73
2023-03-18T03:16:13.036Z,11.57
2023-03-18T03:18:42.034Z,13.73
2023-03-18T03:21:12.182Z,13.75
2023-03-18T03:23:41.514Z,13.70
2023-03-18T03:26:10.230Z,12.38
2023-03-18T03:28:40.045Z,13.65
2023-03-18T03:31:08.828Z,13.27
2023-03-18T03:33:41.190Z,12.68
2023-03-18T03:36:11.442Z,13.68
2023-03-18T03:38:41.457Z,12.52
2023-03-18T03:41:15.620Z,13.07
2023-03-18T03:43:45.710Z,14.98
2023-03-18T03:46:14.290Z,13.23
2023-03-18T03:48:43.657Z,13.10
2023-03-18T03:51:15.809Z,14.50
2023-03-18T03:53:46.109Z,14.75
2023-03-18T03:56:15.582Z,13.23
2023-03-18T03:58:45.713Z,14.63
2023-03-18T04:01:14.215Z,13.45
2023-03-18T04:03:44.463Z,14.85
2023-03-18T04:06:13.262Z,15.82
2023-03-18T04:08:48.791Z,15.50
2023-03-18T04:11:17.217Z,15.13
2023-03-18T04:13:46.767Z,17.75
2023-03-18T04:16:17.010Z,15.07
2023-03-18T04:18:45.459Z,20.30
2023-03-18T04:21:14.761Z,16.25
2023-03-18T04:23:54.637Z,20.30
2023-03-18T04:26:24.310Z,20.42
2023-03-18T04:28:55.329Z,19.48
2023-03-18T04:31:25.125Z,22.80
2023-03-18T04:33:53.482Z,20.70
2023-03-18T04:36:22.078Z,13.43
2023-03-18T04:38:51.406Z,17.08
2023-03-18T04:41:19.905Z,15.38
2023-03-18T04:43:48.856Z,13.65
2023-03-18T04:46:18.966Z,15.85
2023-03-18T04:48:49.267Z,15.73
2023-03-18T04:51:18.857Z,15.18
2023-03-18T04:53:48.516Z,17.17
2023-03-18T04:56:17.456Z,16.30
2023-03-18T04:58:51.158Z,15.27
2023-03-18T05:01:25.275Z,18.25
2023-03-18T05:03:55.178Z,18.80
2023-03-18T05:06:28.684Z,18.05
2023-03-18T05:09:05.721Z,22.35
2023-03-18T05:11:43.757Z,19.55
2023-03-18T05:14:21.296Z,21.13
2023-03-18T05:16:52.223Z,17.95
2023-03-18T05:19:20.769Z,18.42
2023-03-18T05:21:57.640Z,20.42
2023-03-18T05:24:27.293Z,17.13
2023-03-18T05:26:56.055Z,20.52
2023-03-18T05:29:32.170Z,22.35
2023-03-18T05:32:14.641Z,17.75
2023-03-18T05:34:43.729Z,16.88
2023-03-18T05:37:15.401Z,15.93
2023-03-18T05:39:49.821Z,24.67
2023-03-18T05:42:21.302Z,17.52
2023-03-18T05:44:49.980Z,15.07
2023-03-18T05:47:23.650Z,9.65
2023-03-18T05:50:04.854Z,5.38
2023-03-18T05:52:35.172Z,6.10
2023-03-18T05:55:07.709Z,8.88
2023-03-18T05:57:40.302Z,3.67
2023-03-18T06:00:13.407Z,9.05
2023-03-18T06:02:47.419Z,6.32
2023-03-18T06:05:18.254Z,6.70
2023-03-18T06:07:48.242Z,4.90
2023-03-18T06:10:16.966Z,6.75
2023-03-18T06:12:47.653Z,7.13
2023-03-18T06:15:21.260Z,12.90
2023-03-18T06:17:51.540Z,9.85
2023-03-18T06:20:20.553Z,9.55
2023-03-18T06:22:50.110Z,13.30
2023-03-18T06:25:20.568Z,12.68
2023-03-18T06:27:50.665Z,16.88
2023-03-18T06:30:22.076Z,12.38
2023-03-18T06:32:53.211Z,16.90
2023-03-18T06:35:23.156Z,18.30
2023-03-18T06:37:51.572Z,15.73
2023-03-18T06:40:20.228Z,16.65
2023-03-18T06:42:50.078Z,12.25
2023-03-18T06:45:28.292Z,10.95
2023-03-18T06:48:05.913Z,11.65
2023-03-18T06:50:39.560Z,11.57
2023-03-18T06:53:14.147Z,14.05
2023-03-18T06:55:43.377Z,12.27
2023-03-18T06:58:11.952Z,7.57
2023-03-18T07:00:57.226Z,10.00
2023-03-18T07:03:32.856Z,11.82
2023-03-18T07:06:05.220Z,11.18
2023-03-18T07:08:34.638Z,11.20
2023-03-18T07:11:08.116Z,12.50
2023-03-18T07:13:39.934Z,16.10
2023-03-18T07:16:15.549Z,14.50
2023-03-18T07:18:46.992Z,11.73
2023-03-18T07:21:16.759Z,12.57
2023-03-18T07:23:45.225Z,11.18
2023-03-18T07:26:14.602Z,12.77
2023-03-18T07:28:42.871Z,11.05
2023-03-18T07:31:11.330Z,15.43
2023-03-18T07:33:40.306Z,10.65
2023-03-18T07:36:10.927Z,9.63
2023-03-18T07:38:40.008Z,8.65
2023-03-18T07:41:09.430Z,8.02
2023-03-18T07:43:38.563Z,8.68
2023-03-18T07:46:07.312Z,8.82
2023-03-18T07:48:35.629Z,9.20
2023-03-18T07:51:11.863Z,9.50
2023-03-18T07:53:40.121Z,8.30
2023-03-18T07:56:09.823Z,6.13
2023-03-18T07:58:38.623Z,9.02
2023-03-18T08:01:35.606Z,5.55
2023-03-18T08:04:10.688Z,9.85
2023-03-18T08:06:40.504Z,7.93
2023-03-18T08:09:09.359Z,10.13
2023-03-18T08:11:38.147Z,8.23
2023-03-18T08:14:07.545Z,9.75
2023-03-18T08:16:35.822Z,9.82
2023-03-18T08:19:32.805Z,7.43
2023-03-18T08:22:06.813Z,7.60
2023-03-18T08:24:35.398Z,6.72
2023-03-18T08:27:10.373Z,6.20
2023-03-18T08:29:38.948Z,7.38
2023-03-18T08:32:11.863Z,5.75
2023-03-18T08:34:40.120Z,7.07
2023-03-18T08:37:10.698Z,5.60
2023-03-18T08:39:39.907Z,8.48
2023-03-18T08:42:10.269Z,5.32
2023-03-18T08:44:40.110Z,5.60
2023-03-18T08:47:08.838Z,7.25
2023-03-18T08:49:37.256Z,7.57
2023-03-18T08:52:09.552Z,7.22
2023-03-18T08:54:38.043Z,6.25
2023-03-18T08:57:06.899Z,5.82
2023-03-18T08:59:36.550Z,6.10
2023-03-18T09:02:16.775Z,2.97
2023-03-18T09:04:45.708Z,4.60
2023-03-18T09:07:17.953Z,3.85
2023-03-18T09:09:47.341Z,4.70
2023-03-18T09:12:16.170Z,3.17
2023-03-18T09:14:44.795Z,2.45
2023-03-18T09:17:13.266Z,3.95
2023-03-18T09:19:41.616Z,3.97
2023-03-18T09:22:10.296Z,3.97
2023-03-18T09:24:40.550Z,3.90
2023-03-18T09:27:10.720Z,2.88
2023-03-18T09:29:39.261Z,4.55
2023-03-18T09:32:13.138Z,3.40
2023-03-18T09:34:41.404Z,3.85
2023-03-18T09:37:10.039Z,4.47
2023-03-18T09:39:39.538Z,5.82
2023-03-18T09:42:24.431Z,2.47
2023-03-18T09:44:57.877Z,8.00
2023-03-18T09:47:52.746Z,4.25
2023-03-18T09:50:34.381Z,3.75
2023-03-18T09:53:12.992Z,4.13
2023-03-18T09:55:46.889Z,7.15
2023-03-18T09:58:24.819Z,4.72
2023-03-18T10:00:58.971Z,4.97
2023-03-18T10:03:35.620Z,6.88
2023-03-18T10:06:13.809Z,6.90
2023-03-18T10:08:49.502Z,4.88
2023-03-18T10:11:28.040Z,5.55
2023-03-18T10:14:09.909Z,3.53
2023-03-18T10:16:51.878Z,4.72
2023-03-18T10:19:20.908Z,5.72
2023-03-18T10:21:59.048Z,6.80
2023-03-18T10:24:38.319Z,6.85
2023-03-18T10:27:16.918Z,5.90
2023-03-18T10:29:51.044Z,5.90
2023-03-18T10:32:46.368Z,6.95
2023-03-18T10:35:31.936Z,6.03
2023-03-18T10:38:06.822Z,6.80
2023-03-18T10:40:38.263Z,4.50
2023-03-18T10:43:17.868Z,4.15
2023-03-18T10:45:48.127Z,4.50
2023-03-18T10:48:22.201Z,6.68
2023-03-18T10:50:57.592Z,7.88
2023-03-18T10:53:30.717Z,5.13
2023-03-18T10:56:12.812Z,7.75
2023-03-18T10:58:43.625Z,6.70
2023-03-18T11:01:17.145Z,4.57
2023-03-18T11:03:51.782Z,7.28
2023-03-18T11:06:25.485Z,4.65
2023-03-18T11:09:05.661Z,4.82
2023-03-18T11:11:35.354Z,5.30
2023-03-18T11:14:17.072Z,8.57
2023-03-18T11:16:50.577Z,4.13
2023-03-18T11:19:29.780Z,5.03
2023-03-18T11:22:06.869Z,5.43
2023-03-18T11:24:42.388Z,7.05
2023-03-18T11:27:27.069Z,6.28
2023-03-18T11:29:59.862Z,5.30
2023-03-18T11:32:37.045Z,4.78
2023-03-18T11:35:08.591Z,3.88
2023-03-18T11:37:39.004Z,6.35
2023-03-18T11:40:19.369Z,6.70
2023-03-18T11:42:49.520Z,5.43
2023-03-18T11:45:47.987Z,6.10
2023-03-18T11:48:25.007Z,4.10
2023-03-18T11:51:33.529Z,3.22
2023-03-18T11:54:14.924Z,4.13
2023-03-18T11:56:47.801Z,7.47
2023-03-18T11:59:28.807Z,4.20
2023-03-18T12:02:13.034Z,4.03
2023-03-18T12:04:56.300Z,4.75
2023-03-18T12:07:38.917Z,4.50
2023-03-18T12:10:20.449Z,3.58
2023-03-18T12:13:04.789Z,4.15
2023-03-18T12:15:44.879Z,4.43
2023-03-18T12:18:29.422Z,8.18
2023-03-18T12:21:07.826Z,3.03
2023-03-18T12:23:52.883Z,4.32
2023-03-18T12:26:27.661Z,4.45
2023-03-18T12:29:25.820Z,3.15
2023-03-18T12:32:06.047Z,2.85
2023-03-18T12:34:52.479Z,4.88
2023-03-18T12:37:32.026Z,3.75
2023-03-18T12:40:29.187Z,3.88
2023-03-18T12:43:17.601Z,4.57
2023-03-18T12:45:50.527Z,4.85
2023-03-18T12:48:42.386Z,3.47
2023-03-18T12:51:18.959Z,2.50
2023-03-18T12:53:50.950Z,6.00
2023-03-18T12:56:23.676Z,3.83
2023-03-18T12:58:53.975Z,4.45
2023-03-18T13:01:27.973Z,3.65
2023-03-18T13:04:03.020Z,6.18
2023-03-18T13:06:40.430Z,4.38
2023-03-18T13:09:16.513Z,4.13
2023-03-18T13:12:04.723Z,5.20
2023-03-18T13:14:44.762Z,3.67
2023-03-18T13:17:16.509Z,4.55
2023-03-18T13:19:46.100Z,5.15
2023-03-18T13:22:36.599Z,2.47
2023-03-18T13:25:15.626Z,3.42
2023-03-18T13:27:59.159Z,6.88
2023-03-18T13:30:36.696Z,4.50
2023-03-18T13:33:23.028Z,4.43
2023-03-18T13:36:14.179Z,4.38
2023-03-18T13:38:55.558Z,3.83
2023-03-18T13:41:39.346Z,7.30
2023-03-18T13:44:15.449Z,4.47
2023-03-18T13:46:54.207Z,2.65
2023-03-18T13:49:25.395Z,7.30
2023-03-18T13:51:58.206Z,2.70
2023-03-18T13:54:35.611Z,2.97
2023-03-18T13:57:42.084Z,3.22
2023-03-18T14:00:26.488Z,2.47
2023-03-18T14:03:17.573Z,3.55
2023-03-18T14:05:47.072Z,4.43
2023-03-18T14:08:52.004Z,4.40
2023-03-18T14:11:47.650Z,4.03
2023-03-18T14:14:43.378Z,6.07
2023-03-18T14:17:19.947Z,6.05
2023-03-18T14:19:48.399Z,6.07
2023-03-18T14:22:22.793Z,3.22
2023-03-18T14:25:21.210Z,3.03
2023-03-18T14:27:53.655Z,2.75
2023-03-18T14:30:44.633Z,4.40
2023-03-18T14:33:33.146Z,3.15
2023-03-18T14:36:09.375Z,4.22
2023-03-18T14:38:46.499Z,4.55
2023-03-18T14:41:18.711Z,3.42
2023-03-18T14:43:59.743Z,4.85
2023-03-18T14:46:34.160Z,4.68
2023-03-18T14:49:07.878Z,6.28
2023-03-18T14:51:37.331Z,4.50
2023-03-18T14:54:14.200Z,5.43
2023-03-18T14:56:52.379Z,4.38
2023-03-18T14:59:25.762Z,5.28
2023-03-18T15:01:55.485Z,4.30
2023-03-18T15:04:26.188Z,9.13
2023-03-18T15:06:59.024Z,4.57
2023-03-18T15:09:30.019Z,5.68
2023-03-18T15:11:59.447Z,5.60
2023-03-18T15:14:30.953Z,5.65
2023-03-18T15:20:00.108Z,5.80
2023-03-18T15:22:34.750Z,3.55
2023-03-18T15:25:32.323Z,5.40
2023-03-18T15:28:04.793Z,3.80
2023-03-18T15:30:35.188Z,6.00
2023-03-18T15:33:09.651Z,2.75
2023-03-18T15:35:40.184Z,3.67
2023-03-18T15:38:19.301Z,5.25
2023-03-18T15:40:50.425Z,3.60
2023-03-18T15:43:26.937Z,7.45
2023-03-18T15:45:59.706Z,6.60
2023-03-18T15:48:34.901Z,3.33
2023-03-18T15:51:10.980Z,4.00
2023-03-18T15:53:44.743Z,3.97
2023-03-18T15:56:20.832Z,5.53
2023-03-18T15:58:59.054Z,6.00
2023-03-18T16:01:28.676Z,3.88
2023-03-18T16:03:57.042Z,7.43
2023-03-18T17:30:33.994Z,5.20
2023-03-18T17:37:37.933Z,11.68
2023-03-18T17:46:05.549Z,7.97
2023-03-18T17:48:57.564Z,6.30
2023-03-18T17:51:36.413Z,4.35
2023-03-18T17:57:32.140Z,5.22
2023-03-18T18:00:42.637Z,5.28
2023-03-18T18:03:33.110Z,4.15
2023-03-18T18:06:06.751Z,4.00
2023-03-18T18:08:36.176Z,4.88
2023-03-18T18:11:21.361Z,3.45
2023-03-18T18:13:58.045Z,5.35
2023-03-18T18:16:27.062Z,5.25
2023-03-18T18:19:06.747Z,3.60
2023-03-18T18:21:37.532Z,3.75
2023-03-18T18:24:15.732Z,7.00
2023-03-18T18:26:44.486Z,3.67
2023-03-18T18:29:20.409Z,4.10
2023-03-18T18:31:51.312Z,6.30
2023-03-18T18:34:21.413Z,4.03
2023-03-18T18:36:51.697Z,5.97
2023-03-18T18:39:21.099Z,3.58
2023-03-18T18:41:51.229Z,5.43
2023-03-18T18:44:20.319Z,4.72
2023-03-18T18:46:52.102Z,6.63
2023-03-18T18:49:23.116Z,4.95
2023-03-18T18:51:56.044Z,5.85
2023-03-18T18:54:25.535Z,9.05
2023-03-18T19:00:27.366Z,8.18
2023-03-18T19:03:34.901Z,7.82
2023-03-18T19:06:12.089Z,6.35
2023-03-18T19:09:07.088Z,6.03
2023-03-18T19:11:36.991Z,5.50
2023-03-18T19:14:19.770Z,6.07
2023-03-18T19:16:49.542Z,7.28
2023-03-18T19:23:33.288Z,6.85
2023-03-18T19:26:16.067Z,5.18
2023-03-18T19:28:59.377Z,6.28
2023-03-18T19:31:41.299Z,4.47
2023-03-18T19:34:16.458Z,4.78
2023-03-18T19:36:48.679Z,8.23
2023-03-18T19:39:28.795Z,8.63
2023-03-18T19:42:13.990Z,9.32
2023-03-18T19:44:43.807Z,8.73
2023-03-18T19:47:19.028Z,6.07
2023-03-18T19:49:47.890Z,6.97
2023-03-18T19:52:20.508Z,5.97
2023-03-18T19:54:54.304Z,5.55
2023-03-18T19:57:27.934Z,4.82
2023-03-18T19:59:59.494Z,5.05
2023-03-18T20:06:04.047Z,6.30
2023-03-18T20:08:39.003Z,8.13
2023-03-18T20:11:11.799Z,10.32
2023-03-18T20:13:43.521Z,7.60
2023-03-18T20:16:15.410Z,4.63
2023-03-18T20:18:45.118Z,6.35
2023-03-18T20:21:20.746Z,9.70
2023-03-18T20:23:50.128Z,7.07
2023-03-18T20:26:46.188Z,9.05
2023-03-18T20:29:25.370Z,7.10
2023-03-18T20:31:54.402Z,6.95
2023-03-18T20:34:24.295Z,7.03
2023-03-18T20:36:53.700Z,8.13
2023-03-18T20:39:24.150Z,9.10
2023-03-18T20:41:52.896Z,6.03
2023-03-18T20:44:40.487Z,5.32
2023-03-18T20:47:10.623Z,7.35
2023-03-18T20:49:40.999Z,6.78
2023-03-18T20:52:23.688Z,5.28
2023-03-18T20:54:52.991Z,6.28
2023-03-18T20:57:23.210Z,5.18
2023-03-18T20:59:53.715Z,6.30
2023-03-18T21:02:31.095Z,7.30
2023-03-18T21:05:00.868Z,6.82
2023-03-18T21:08:06.625Z,8.18
2023-03-18T21:10:38.312Z,5.15
2023-03-18T21:13:22.048Z,8.23
2023-03-18T21:15:54.128Z,5.63
2023-03-18T21:18:23.466Z,9.05
2023-03-18T21:20:54.018Z,6.95
2023-03-18T21:23:24.947Z,7.95
2023-03-18T21:25:57.730Z,9.02
2023-03-18T21:29:09.382Z,9.02
2023-03-18T21:31:41.327Z,11.07
2023-03-18T21:34:50.871Z,8.27
2023-03-18T21:37:22.321Z,6.13
2023-03-18T21:39:57.864Z,6.78
2023-03-18T21:43:30.589Z,9.95
2023-03-18T21:45:59.668Z,9.13
2023-03-18T21:48:30.597Z,5.68
2023-03-18T21:51:00.221Z,6.82
2023-03-18T21:58:10.734Z,8.32
2023-03-18T22:00:40.207Z,7.70
2023-03-18T22:03:14.944Z,4.88
2023-03-18T22:05:52.837Z,6.25
2023-03-18T22:08:22.704Z,4.78
2023-03-18T22:10:52.437Z,6.75
2023-03-18T22:13:22.834Z,3.97
2023-03-18T22:15:52.513Z,6.22
2023-03-18T22:18:22.789Z,5.65
2023-03-18T22:20:52.862Z,7.55
2023-03-18T22:23:23.388Z,6.22
2023-03-18T22:25:53.264Z,6.28
2023-03-18T22:28:22.755Z,7.63
2023-03-18T22:30:54.874Z,9.80
2023-03-18T22:33:26.957Z,11.70
2023-03-18T22:35:57.185Z,6.72
2023-03-18T22:38:26.740Z,6.35
2023-03-18T22:40:57.758Z,12.80
2023-03-18T22:43:32.148Z,10.05
2023-03-18T22:46:07.444Z,10.00
2023-03-18T22:48:36.251Z,10.55
2023-03-18T22:51:08.379Z,12.48
2023-03-18T22:53:39.202Z,9.60
2023-03-18T22:56:11.585Z,10.07
2023-03-18T22:58:40.258Z,10.05
2023-03-18T23:01:14.865Z,8.27
2023-03-18T23:03:44.051Z,6.82
2023-03-18T23:06:16.758Z,6.60
2023-03-18T23:08:46.569Z,7.40
2023-03-18T23:11:16.426Z,8.30
2023-03-18T23:13:46.716Z,7.63
2023-03-18T23:16:17.732Z,6.35
2023-03-18T23:18:46.351Z,8.05
2023-03-18T23:21:19.879Z,13.90
2023-03-18T23:23:48.457Z,12.35
2023-03-18T23:26:17.170Z,7.05
2023-03-18T23:28:46.053Z,8.07
2023-03-18T23:31:14.810Z,7.35
2023-03-18T23:33:43.613Z,8.02
2023-03-18T23:36:12.826Z,7.25
2023-03-18T23:38:42.696Z,8.48
2023-03-18T23:41:10.933Z,7.05
2023-03-18T23:43:39.364Z,6.38
2023-03-18T23:46:08.385Z,5.85
2023-03-18T23:48:37.303Z,7.82
2023-03-18T23:51:06.396Z,6.15
2023-03-18T23:53:34.709Z,6.13
2023-03-18T23:56:09.218Z,7.15
2023-03-18T23:58:37.461Z,5.32
